aviador You're here:

OIAW Decoded Metar

AHWAZ in IRAN
Report Time2017-06-27 04:52:00
UTC Time2017-06-27 05:20:53
Flight Rules vfr VFR
Wind150° at 04 kt
W.Decomp.*RWY 12: 3.6 kt HW 1.8 kt RCW
W.Rank150° ranks 11
Current wind is below 150° avg. (6.0)
Visibility8000 m
Phenomena:N/A
Clouds:N/A
Expected CloudBase > 7,200 ft AGL from Temp-Dew spread
CeilingNone
Temp35°C (ISA +20)
Dew Point17°C (34% RH)
Heat Index35.6°C
QNH0999 hPa
Density Alt3,087 ft
Elevation72 ft
Report Wrong Elevation
Raw Report
METAR OIAW 270452Z 15004KT 8000 NSC 35/17 Q0999=

Extra information for OIAW:More info

Metar Taf Metar & Taf Last 4 Metars F.Rules Stats Wind Profile Meteogram Temp Stats Airport Information Weather charts Add Link Nearby VenuesMetar ALERT Operation Metar Decoded Social comments